sensor_id;sensor_type;location;lat;lon;timestamp;P1;durP1;ratioP1;P2;durP2;ratioP2
51981;SDS011;37998;53.416;6.730;2023-04-25T00:01:38;16.42;;;4.30;;
51981;SDS011;37998;53.416;6.730;2023-04-25T00:04:04;16.10;;;3.80;;
51981;SDS011;37998;53.416;6.730;2023-04-25T00:06:31;18.55;;;4.13;;
51981;SDS011;37998;53.416;6.730;2023-04-25T00:08:57;17.67;;;3.97;;
51981;SDS011;37998;53.416;6.730;2023-04-25T00:11:23;16.63;;;3.70;;
51981;SDS011;37998;53.416;6.730;2023-04-25T00:13:49;17.23;;;5.10;;
51981;SDS011;37998;53.416;6.730;2023-04-25T00:16:19;13.15;;;3.67;;
51981;SDS011;37998;53.416;6.730;2023-04-25T00:18:45;14.63;;;3.80;;
51981;SDS011;37998;53.416;6.730;2023-04-25T00:21:17;15.93;;;3.58;;
51981;SDS011;37998;53.416;6.730;2023-04-25T00:23:45;15.52;;;3.85;;
51981;SDS011;37998;53.416;6.730;2023-04-25T00:26:11;18.60;;;3.55;;
51981;SDS011;37998;53.416;6.730;2023-04-25T00:28:37;15.38;;;3.47;;
51981;SDS011;37998;53.416;6.730;2023-04-25T00:31:04;18.40;;;3.95;;
51981;SDS011;37998;53.416;6.730;2023-04-25T00:33:30;15.05;;;4.28;;
51981;SDS011;37998;53.416;6.730;2023-04-25T00:35:56;19.05;;;4.65;;
51981;SDS011;37998;53.416;6.730;2023-04-25T00:38:22;15.32;;;4.25;;
51981;SDS011;37998;53.416;6.730;2023-04-25T00:40:48;21.50;;;4.18;;
51981;SDS011;37998;53.416;6.730;2023-04-25T00:43:14;16.83;;;3.97;;
51981;SDS011;37998;53.416;6.730;2023-04-25T00:45:40;16.23;;;3.78;;
51981;SDS011;37998;53.416;6.730;2023-04-25T00:48:08;18.45;;;3.85;;
51981;SDS011;37998;53.416;6.730;2023-04-25T00:50:34;13.98;;;3.97;;
51981;SDS011;37998;53.416;6.730;2023-04-25T00:53:01;16.90;;;3.75;;
51981;SDS011;37998;53.416;6.730;2023-04-25T00:55:28;22.27;;;3.97;;
51981;SDS011;37998;53.416;6.730;2023-04-25T00:57:56;15.00;;;4.07;;
51981;SDS011;37998;53.416;6.730;2023-04-25T01:00:23;12.77;;;3.47;;
51981;SDS011;37998;53.416;6.730;2023-04-25T01:02:49;13.90;;;4.03;;
51981;SDS011;37998;53.416;6.730;2023-04-25T01:05:15;22.50;;;4.28;;
51981;SDS011;37998;53.416;6.730;2023-04-25T01:07:41;20.95;;;4.88;;
51981;SDS011;37998;53.416;6.730;2023-04-25T01:10:07;17.73;;;4.45;;
51981;SDS011;37998;53.416;6.730;2023-04-25T01:12:34;16.73;;;4.07;;
51981;SDS011;37998;53.416;6.730;2023-04-25T01:15:00;13.68;;;4.45;;
51981;SDS011;37998;53.416;6.730;2023-04-25T01:17:27;14.00;;;3.63;;
51981;SDS011;37998;53.416;6.730;2023-04-25T01:19:54;9.65;;;3.20;;
51981;SDS011;37998;53.416;6.730;2023-04-25T01:22:20;11.13;;;2.80;;
51981;SDS011;37998;53.416;6.730;2023-04-25T01:24:46;14.75;;;3.65;;
51981;SDS011;37998;53.416;6.730;2023-04-25T01:27:13;13.40;;;3.05;;
51981;SDS011;37998;53.416;6.730;2023-04-25T01:29:40;14.38;;;3.25;;
51981;SDS011;37998;53.416;6.730;2023-04-25T01:32:07;15.27;;;3.33;;
51981;SDS011;37998;53.416;6.730;2023-04-25T01:34:33;15.15;;;3.55;;
51981;SDS011;37998;53.416;6.730;2023-04-25T01:36:59;12.93;;;3.30;;
51981;SDS011;37998;53.416;6.730;2023-04-25T01:39:27;14.50;;;3.20;;
51981;SDS011;37998;53.416;6.730;2023-04-25T01:41:53;13.32;;;2.97;;
51981;SDS011;37998;53.416;6.730;2023-04-25T01:44:20;15.40;;;3.72;;
51981;SDS011;37998;53.416;6.730;2023-04-25T01:46:46;15.48;;;3.72;;
51981;SDS011;37998;53.416;6.730;2023-04-25T01:49:12;18.65;;;3.95;;
51981;SDS011;37998;53.416;6.730;2023-04-25T01:51:39;21.50;;;3.45;;
51981;SDS011;37998;53.416;6.730;2023-04-25T01:54:05;14.80;;;3.40;;
51981;SDS011;37998;53.416;6.730;2023-04-25T01:56:32;15.73;;;3.50;;
51981;SDS011;37998;53.416;6.730;2023-04-25T01:59:02;12.85;;;3.38;;
51981;SDS011;37998;53.416;6.730;2023-04-25T02:01:47;9.35;;;3.20;;
51981;SDS011;37998;53.416;6.730;2023-04-25T02:04:21;10.13;;;3.33;;
51981;SDS011;37998;53.416;6.730;2023-04-25T02:06:47;14.65;;;3.70;;
51981;SDS011;37998;53.416;6.730;2023-04-25T02:09:13;15.18;;;3.00;;
51981;SDS011;37998;53.416;6.730;2023-04-25T02:11:44;14.05;;;3.67;;
51981;SDS011;37998;53.416;6.730;2023-04-25T02:14:25;15.68;;;3.05;;
51981;SDS011;37998;53.416;6.730;2023-04-25T02:17:17;12.70;;;2.90;;
51981;SDS011;37998;53.416;6.730;2023-04-25T02:19:44;10.77;;;3.40;;
51981;SDS011;37998;53.416;6.730;2023-04-25T02:22:11;13.30;;;3.20;;
51981;SDS011;37998;53.416;6.730;2023-04-25T02:24:37;19.08;;;3.67;;
51981;SDS011;37998;53.416;6.730;2023-04-25T02:27:03;11.23;;;3.30;;
51981;SDS011;37998;53.416;6.730;2023-04-25T02:29:30;10.18;;;3.08;;
51981;SDS011;37998;53.416;6.730;2023-04-25T02:31:55;10.65;;;2.95;;
51981;SDS011;37998;53.416;6.730;2023-04-25T02:34:21;9.25;;;2.97;;
51981;SDS011;37998;53.416;6.730;2023-04-25T02:36:48;9.73;;;2.58;;
51981;SDS011;37998;53.416;6.730;2023-04-25T02:39:17;10.48;;;2.75;;
51981;SDS011;37998;53.416;6.730;2023-04-25T02:41:44;14.20;;;3.30;;
51981;SDS011;37998;53.416;6.730;2023-04-25T02:44:10;10.93;;;3.47;;
51981;SDS011;37998;53.416;6.730;2023-04-25T02:46:36;17.60;;;3.65;;
51981;SDS011;37998;53.416;6.730;2023-04-25T02:49:02;16.25;;;3.35;;
51981;SDS011;37998;53.416;6.730;2023-04-25T02:51:29;10.00;;;3.55;;
51981;SDS011;37998;53.416;6.730;2023-04-25T02:53:55;13.00;;;2.80;;
51981;SDS011;37998;53.416;6.730;2023-04-25T02:56:21;9.52;;;2.70;;
51981;SDS011;37998;53.416;6.730;2023-04-25T02:58:47;6.47;;;1.88;;
51981;SDS011;37998;53.416;6.730;2023-04-25T03:01:13;10.30;;;2.45;;
51981;SDS011;37998;53.416;6.730;2023-04-25T03:03:39;10.13;;;2.75;;
51981;SDS011;37998;53.416;6.730;2023-04-25T03:06:05;12.57;;;2.90;;
51981;SDS011;37998;53.416;6.730;2023-04-25T03:08:32;19.30;;;4.60;;
51981;SDS011;37998;53.416;6.730;2023-04-25T03:11:00;19.08;;;4.15;;
51981;SDS011;37998;53.416;6.730;2023-04-25T03:13:26;11.48;;;3.40;;
51981;SDS011;37998;53.416;6.730;2023-04-25T03:15:54;14.82;;;3.10;;
51981;SDS011;37998;53.416;6.730;2023-04-25T03:18:20;9.90;;;3.40;;
51981;SDS011;37998;53.416;6.730;2023-04-25T03:20:46;19.80;;;3.28;;
51981;SDS011;37998;53.416;6.730;2023-04-25T03:23:12;9.77;;;3.28;;
51981;SDS011;37998;53.416;6.730;2023-04-25T03:25:41;8.75;;;2.70;;
51981;SDS011;37998;53.416;6.730;2023-04-25T03:28:06;12.00;;;4.05;;
51981;SDS011;37998;53.416;6.730;2023-04-25T03:30:33;13.30;;;3.05;;
51981;SDS011;37998;53.416;6.730;2023-04-25T03:32:59;13.90;;;3.08;;
51981;SDS011;37998;53.416;6.730;2023-04-25T03:35:25;12.55;;;3.10;;
51981;SDS011;37998;53.416;6.730;2023-04-25T03:37:51;12.35;;;3.10;;
51981;SDS011;37998;53.416;6.730;2023-04-25T03:40:22;10.23;;;3.08;;
51981;SDS011;37998;53.416;6.730;2023-04-25T03:43:20;14.48;;;3.22;;
51981;SDS011;37998;53.416;6.730;2023-04-25T03:45:53;9.40;;;2.47;;
51981;SDS011;37998;53.416;6.730;2023-04-25T03:48:21;9.45;;;3.10;;
51981;SDS011;37998;53.416;6.730;2023-04-25T03:50:47;12.45;;;3.40;;
51981;SDS011;37998;53.416;6.730;2023-04-25T03:53:13;10.65;;;2.80;;
51981;SDS011;37998;53.416;6.730;2023-04-25T03:55:59;6.47;;;2.55;;
51981;SDS011;37998;53.416;6.730;2023-04-25T03:58:25;10.15;;;3.05;;
51981;SDS011;37998;53.416;6.730;2023-04-25T04:00:51;8.98;;;3.30;;
51981;SDS011;37998;53.416;6.730;2023-04-25T04:03:17;16.63;;;3.10;;
51981;SDS011;37998;53.416;6.730;2023-04-25T04:05:43;16.73;;;3.15;;
51981;SDS011;37998;53.416;6.730;2023-04-25T04:08:10;13.55;;;3.55;;
51981;SDS011;37998;53.416;6.730;2023-04-25T04:10:38;10.23;;;2.42;;
51981;SDS011;37998;53.416;6.730;2023-04-25T04:13:04;7.88;;;2.28;;
51981;SDS011;37998;53.416;6.730;2023-04-25T04:15:31;8.73;;;2.55;;
51981;SDS011;37998;53.416;6.730;2023-04-25T04:17:58;6.45;;;2.28;;
51981;SDS011;37998;53.416;6.730;2023-04-25T04:20:28;8.50;;;2.63;;
51981;SDS011;37998;53.416;6.730;2023-04-25T04:22:55;9.05;;;2.55;;
51981;SDS011;37998;53.416;6.730;2023-04-25T04:25:22;4.45;;;2.20;;
51981;SDS011;37998;53.416;6.730;2023-04-25T04:28:10;9.50;;;2.38;;
51981;SDS011;37998;53.416;6.730;2023-04-25T04:30:49;9.30;;;2.53;;
51981;SDS011;37998;53.416;6.730;2023-04-25T04:33:17;12.88;;;2.60;;
51981;SDS011;37998;53.416;6.730;2023-04-25T04:35:45;11.18;;;2.85;;
51981;SDS011;37998;53.416;6.730;2023-04-25T04:38:13;18.65;;;3.03;;
51981;SDS011;37998;53.416;6.730;2023-04-25T04:40:41;10.65;;;3.15;;
51981;SDS011;37998;53.416;6.730;2023-04-25T04:43:43;12.23;;;2.78;;
51981;SDS011;37998;53.416;6.730;2023-04-25T04:46:36;13.93;;;3.13;;
51981;SDS011;37998;53.416;6.730;2023-04-25T04:49:27;10.57;;;2.80;;
51981;SDS011;37998;53.416;6.730;2023-04-25T04:52:12;9.52;;;3.42;;
51981;SDS011;37998;53.416;6.730;2023-04-25T04:55:04;18.70;;;2.70;;
51981;SDS011;37998;53.416;6.730;2023-04-25T04:57:50;20.10;;;3.10;;
51981;SDS011;37998;53.416;6.730;2023-04-25T05:00:39;12.18;;;2.97;;
51981;SDS011;37998;53.416;6.730;2023-04-25T05:03:24;15.73;;;2.75;;
51981;SDS011;37998;53.416;6.730;2023-04-25T05:06:05;11.13;;;2.58;;
51981;SDS011;37998;53.416;6.730;2023-04-25T05:08:57;15.57;;;3.43;;
51981;SDS011;37998;53.416;6.730;2023-04-25T05:11:34;22.00;;;3.55;;
51981;SDS011;37998;53.416;6.730;2023-04-25T05:14:23;13.38;;;2.38;;
51981;SDS011;37998;53.416;6.730;2023-04-25T05:17:07;9.85;;;2.42;;
51981;SDS011;37998;53.416;6.730;2023-04-25T05:19:59;17.42;;;2.97;;
51981;SDS011;37998;53.416;6.730;2023-04-25T05:22:46;9.48;;;2.90;;
51981;SDS011;37998;53.416;6.730;2023-04-25T05:25:17;16.00;;;4.25;;
51981;SDS011;37998;53.416;6.730;2023-04-25T05:27:49;14.85;;;2.67;;
51981;SDS011;37998;53.416;6.730;2023-04-25T05:30:42;9.07;;;2.58;;
51981;SDS011;37998;53.416;6.730;2023-04-25T05:33:13;16.98;;;2.78;;
51981;SDS011;37998;53.416;6.730;2023-04-25T05:35:40;11.27;;;2.67;;
51981;SDS011;37998;53.416;6.730;2023-04-25T05:38:06;11.63;;;2.95;;
51981;SDS011;37998;53.416;6.730;2023-04-25T05:40:51;11.52;;;2.85;;
51981;SDS011;37998;53.416;6.730;2023-04-25T05:43:37;12.05;;;2.42;;
51981;SDS011;37998;53.416;6.730;2023-04-25T05:46:20;11.00;;;2.95;;
51981;SDS011;37998;53.416;6.730;2023-04-25T05:49:00;7.15;;;1.88;;
51981;SDS011;37998;53.416;6.730;2023-04-25T05:51:37;10.95;;;2.30;;
51981;SDS011;37998;53.416;6.730;2023-04-25T05:54:19;7.00;;;2.13;;
51981;SDS011;37998;53.416;6.730;2023-04-25T05:56:45;9.15;;;2.30;;
51981;SDS011;37998;53.416;6.730;2023-04-25T05:59:11;11.48;;;2.47;;
51981;SDS011;37998;53.416;6.730;2023-04-25T06:01:37;10.77;;;3.25;;
51981;SDS011;37998;53.416;6.730;2023-04-25T06:04:03;8.43;;;2.45;;
51981;SDS011;37998;53.416;6.730;2023-04-25T06:06:29;11.82;;;2.10;;
51981;SDS011;37998;53.416;6.730;2023-04-25T06:08:57;8.80;;;2.80;;
51981;SDS011;37998;53.416;6.730;2023-04-25T06:11:23;11.07;;;2.47;;
51981;SDS011;37998;53.416;6.730;2023-04-25T06:13:49;9.65;;;2.45;;
51981;SDS011;37998;53.416;6.730;2023-04-25T06:16:16;9.02;;;2.58;;
51981;SDS011;37998;53.416;6.730;2023-04-25T06:18:42;10.13;;;2.60;;
51981;SDS011;37998;53.416;6.730;2023-04-25T06:21:08;10.02;;;2.10;;
51981;SDS011;37998;53.416;6.730;2023-04-25T06:23:34;9.80;;;3.13;;
51981;SDS011;37998;53.416;6.730;2023-04-25T06:26:06;15.60;;;2.53;;
51981;SDS011;37998;53.416;6.730;2023-04-25T06:28:33;13.52;;;2.17;;
51981;SDS011;37998;53.416;6.730;2023-04-25T06:30:59;9.52;;;2.05;;
51981;SDS011;37998;53.416;6.730;2023-04-25T06:33:26;10.18;;;2.47;;
51981;SDS011;37998;53.416;6.730;2023-04-25T06:35:53;11.70;;;2.63;;
51981;SDS011;37998;53.416;6.730;2023-04-25T06:38:23;12.65;;;2.47;;
51981;SDS011;37998;53.416;6.730;2023-04-25T06:40:51;14.18;;;2.97;;
51981;SDS011;37998;53.416;6.730;2023-04-25T06:43:18;10.55;;;2.80;;
51981;SDS011;37998;53.416;6.730;2023-04-25T06:46:04;13.38;;;2.80;;
51981;SDS011;37998;53.416;6.730;2023-04-25T06:48:32;12.20;;;2.47;;
51981;SDS011;37998;53.416;6.730;2023-04-25T06:50:58;10.52;;;2.55;;
51981;SDS011;37998;53.416;6.730;2023-04-25T06:53:25;7.30;;;2.08;;
51981;SDS011;37998;53.416;6.730;2023-04-25T06:55:57;6.25;;;1.88;;
51981;SDS011;37998;53.416;6.730;2023-04-25T06:58:26;5.20;;;1.83;;
51981;SDS011;37998;53.416;6.730;2023-04-25T07:01:05;6.13;;;1.98;;
51981;SDS011;37998;53.416;6.730;2023-04-25T07:03:31;5.55;;;1.80;;
51981;SDS011;37998;53.416;6.730;2023-04-25T07:06:00;4.97;;;1.70;;
51981;SDS011;37998;53.416;6.730;2023-04-25T07:08:28;7.90;;;1.92;;
51981;SDS011;37998;53.416;6.730;2023-04-25T07:10:54;10.43;;;2.33;;
51981;SDS011;37998;53.416;6.730;2023-04-25T07:13:21;12.30;;;3.17;;
51981;SDS011;37998;53.416;6.730;2023-04-25T07:15:47;7.28;;;2.05;;
51981;SDS011;37998;53.416;6.730;2023-04-25T07:18:14;10.50;;;2.65;;
51981;SDS011;37998;53.416;6.730;2023-04-25T07:20:41;9.00;;;1.85;;
51981;SDS011;37998;53.416;6.730;2023-04-25T07:23:07;8.07;;;2.42;;
51981;SDS011;37998;53.416;6.730;2023-04-25T07:25:33;7.38;;;2.25;;
51981;SDS011;37998;53.416;6.730;2023-04-25T07:27:59;10.25;;;2.35;;
51981;SDS011;37998;53.416;6.730;2023-04-25T07:30:26;6.85;;;1.90;;
51981;SDS011;37998;53.416;6.730;2023-04-25T07:32:52;11.07;;;2.42;;
51981;SDS011;37998;53.416;6.730;2023-04-25T07:35:17;11.73;;;2.33;;
51981;SDS011;37998;53.416;6.730;2023-04-25T07:37:44;8.85;;;3.22;;
51981;SDS011;37998;53.416;6.730;2023-04-25T07:40:13;10.32;;;2.42;;
51981;SDS011;37998;53.416;6.730;2023-04-25T07:42:45;11.77;;;2.63;;
51981;SDS011;37998;53.416;6.730;2023-04-25T07:45:15;13.65;;;2.65;;
51981;SDS011;37998;53.416;6.730;2023-04-25T07:47:41;8.00;;;2.55;;
51981;SDS011;37998;53.416;6.730;2023-04-25T07:50:08;12.05;;;3.10;;
51981;SDS011;37998;53.416;6.730;2023-04-25T07:52:34;10.25;;;2.63;;
51981;SDS011;37998;53.416;6.730;2023-04-25T07:55:13;7.15;;;2.83;;
51981;SDS011;37998;53.416;6.730;2023-04-25T07:57:56;8.80;;;2.00;;
51981;SDS011;37998;53.416;6.730;2023-04-25T08:00:22;14.02;;;2.65;;
51981;SDS011;37998;53.416;6.730;2023-04-25T08:02:54;9.77;;;2.45;;
51981;SDS011;37998;53.416;6.730;2023-04-25T08:05:20;9.27;;;2.58;;
51981;SDS011;37998;53.416;6.730;2023-04-25T08:07:51;10.90;;;2.50;;
51981;SDS011;37998;53.416;6.730;2023-04-25T08:10:17;8.15;;;2.33;;
51981;SDS011;37998;53.416;6.730;2023-04-25T08:12:43;6.82;;;1.98;;
51981;SDS011;37998;53.416;6.730;2023-04-25T08:15:09;6.57;;;1.83;;
51981;SDS011;37998;53.416;6.730;2023-04-25T08:17:38;6.82;;;1.70;;
51981;SDS011;37998;53.416;6.730;2023-04-25T08:20:05;8.32;;;1.98;;
51981;SDS011;37998;53.416;6.730;2023-04-25T08:22:33;7.18;;;2.13;;
51981;SDS011;37998;53.416;6.730;2023-04-25T08:25:15;13.25;;;2.53;;
51981;SDS011;37998;53.416;6.730;2023-04-25T08:27:41;6.15;;;2.42;;
51981;SDS011;37998;53.416;6.730;2023-04-25T08:30:08;7.43;;;2.17;;
51981;SDS011;37998;53.416;6.730;2023-04-25T08:32:35;11.60;;;2.22;;
51981;SDS011;37998;53.416;6.730;2023-04-25T08:35:23;15.45;;;2.67;;
51981;SDS011;37998;53.416;6.730;2023-04-25T08:37:50;11.18;;;2.78;;
51981;SDS011;37998;53.416;6.730;2023-04-25T08:40:16;16.25;;;2.78;;
51981;SDS011;37998;53.416;6.730;2023-04-25T08:42:52;13.10;;;2.97;;
51981;SDS011;37998;53.416;6.730;2023-04-25T08:45:20;9.98;;;2.88;;
51981;SDS011;37998;53.416;6.730;2023-04-25T08:47:46;9.05;;;2.30;;
51981;SDS011;37998;53.416;6.730;2023-04-25T08:50:16;13.93;;;2.88;;
51981;SDS011;37998;53.416;6.730;2023-04-25T08:52:44;6.78;;;2.30;;
51981;SDS011;37998;53.416;6.730;2023-04-25T08:55:12;9.50;;;2.65;;
51981;SDS011;37998;53.416;6.730;2023-04-25T08:57:39;9.90;;;2.50;;
51981;SDS011;37998;53.416;6.730;2023-04-25T09:00:08;16.15;;;2.47;;
51981;SDS011;37998;53.416;6.730;2023-04-25T09:02:42;11.23;;;2.38;;
51981;SDS011;37998;53.416;6.730;2023-04-25T09:05:08;9.75;;;2.58;;
51981;SDS011;37998;53.416;6.730;2023-04-25T09:07:35;9.68;;;2.33;;
51981;SDS011;37998;53.416;6.730;2023-04-25T09:10:01;12.48;;;2.60;;
51981;SDS011;37998;53.416;6.730;2023-04-25T09:12:30;9.20;;;2.28;;
51981;SDS011;37998;53.416;6.730;2023-04-25T09:15:01;12.00;;;2.42;;
51981;SDS011;37998;53.416;6.730;2023-04-25T09:17:43;6.57;;;2.10;;
51981;SDS011;37998;53.416;6.730;2023-04-25T09:20:12;7.32;;;2.13;;
51981;SDS011;37998;53.416;6.730;2023-04-25T09:22:39;9.07;;;1.90;;
51981;SDS011;37998;53.416;6.730;2023-04-25T09:25:12;8.93;;;1.88;;
51981;SDS011;37998;53.416;6.730;2023-04-25T09:27:49;8.55;;;2.03;;
51981;SDS011;37998;53.416;6.730;2023-04-25T09:30:28;7.25;;;1.90;;
51981;SDS011;37998;53.416;6.730;2023-04-25T09:33:11;7.45;;;2.13;;
51981;SDS011;37998;53.416;6.730;2023-04-25T09:35:42;8.82;;;2.08;;
51981;SDS011;37998;53.416;6.730;2023-04-25T09:38:16;9.27;;;2.28;;
51981;SDS011;37998;53.416;6.730;2023-04-25T09:40:59;9.75;;;2.50;;
51981;SDS011;37998;53.416;6.730;2023-04-25T09:43:41;9.73;;;2.67;;
51981;SDS011;37998;53.416;6.730;2023-04-25T09:46:12;8.82;;;2.38;;
51981;SDS011;37998;53.416;6.730;2023-04-25T09:48:50;10.23;;;3.00;;
51981;SDS011;37998;53.416;6.730;2023-04-25T09:51:21;21.73;;;2.83;;
51981;SDS011;37998;53.416;6.730;2023-04-25T09:53:51;11.68;;;2.35;;
51981;SDS011;37998;53.416;6.730;2023-04-25T09:56:26;11.45;;;2.80;;
51981;SDS011;37998;53.416;6.730;2023-04-25T09:58:57;12.73;;;2.60;;
51981;SDS011;37998;53.416;6.730;2023-04-25T10:01:23;17.17;;;2.80;;
51981;SDS011;37998;53.416;6.730;2023-04-25T10:04:07;10.85;;;2.20;;
51981;SDS011;37998;53.416;6.730;2023-04-25T10:06:50;8.85;;;2.20;;
51981;SDS011;37998;53.416;6.730;2023-04-25T10:09:19;13.52;;;2.50;;
51981;SDS011;37998;53.416;6.730;2023-04-25T10:11:46;11.45;;;2.13;;
51981;SDS011;37998;53.416;6.730;2023-04-25T10:14:16;10.07;;;2.20;;
51981;SDS011;37998;53.416;6.730;2023-04-25T10:16:42;13.23;;;2.30;;
51981;SDS011;37998;53.416;6.730;2023-04-25T10:19:09;11.20;;;2.35;;
51981;SDS011;37998;53.416;6.730;2023-04-25T10:21:36;6.22;;;2.13;;
51981;SDS011;37998;53.416;6.730;2023-04-25T10:24:09;8.68;;;1.90;;
51981;SDS011;37998;53.416;6.730;2023-04-25T10:26:35;11.77;;;2.38;;
51981;SDS011;37998;53.416;6.730;2023-04-25T10:29:02;9.38;;;2.38;;
51981;SDS011;37998;53.416;6.730;2023-04-25T10:31:29;10.77;;;2.22;;
51981;SDS011;37998;53.416;6.730;2023-04-25T10:33:56;8.15;;;2.33;;
51981;SDS011;37998;53.416;6.730;2023-04-25T10:36:23;8.10;;;2.30;;
51981;SDS011;37998;53.416;6.730;2023-04-25T10:38:50;9.05;;;2.22;;
51981;SDS011;37998;53.416;6.730;2023-04-25T10:41:20;7.65;;;2.40;;
51981;SDS011;37998;53.416;6.730;2023-04-25T10:43:47;7.22;;;2.38;;
51981;SDS011;37998;53.416;6.730;2023-04-25T10:46:23;7.60;;;2.22;;
51981;SDS011;37998;53.416;6.730;2023-04-25T10:48:52;9.40;;;2.55;;
51981;SDS011;37998;53.416;6.730;2023-04-25T10:51:20;9.70;;;2.30;;
51981;SDS011;37998;53.416;6.730;2023-04-25T10:53:58;15.20;;;2.60;;
51981;SDS011;37998;53.416;6.730;2023-04-25T10:59:13;14.27;;;2.60;;
51981;SDS011;37998;53.416;6.730;2023-04-25T11:01:41;10.43;;;2.42;;
51981;SDS011;37998;53.416;6.730;2023-04-25T11:09:28;10.60;;;2.78;;
51981;SDS011;37998;53.416;6.730;2023-04-25T11:11:54;6.82;;;2.10;;
51981;SDS011;37998;53.416;6.730;2023-04-25T11:14:25;6.95;;;2.20;;
51981;SDS011;37998;53.416;6.730;2023-04-25T11:16:52;9.05;;;2.78;;
51981;SDS011;37998;53.416;6.730;2023-04-25T11:19:21;7.15;;;1.98;;
51981;SDS011;37998;53.416;6.730;2023-04-25T11:21:47;8.95;;;2.20;;
51981;SDS011;37998;53.416;6.730;2023-04-25T11:24:13;5.95;;;1.90;;
51981;SDS011;37998;53.416;6.730;2023-04-25T11:26:43;9.63;;;2.65;;
51981;SDS011;37998;53.416;6.730;2023-04-25T11:29:13;9.32;;;2.20;;
51981;SDS011;37998;53.416;6.730;2023-04-25T11:31:39;12.30;;;2.35;;
51981;SDS011;37998;53.416;6.730;2023-04-25T11:34:10;10.68;;;2.65;;
51981;SDS011;37998;53.416;6.730;2023-04-25T11:36:37;8.45;;;2.35;;
51981;SDS011;37998;53.416;6.730;2023-04-25T11:39:04;9.88;;;2.70;;
51981;SDS011;37998;53.416;6.730;2023-04-25T11:41:32;9.95;;;2.72;;
51981;SDS011;37998;53.416;6.730;2023-04-25T11:43:58;6.78;;;1.52;;
51981;SDS011;37998;53.416;6.730;2023-04-25T11:46:24;10.63;;;2.30;;
51981;SDS011;37998;53.416;6.730;2023-04-25T11:48:50;12.02;;;3.08;;
51981;SDS011;37998;53.416;6.730;2023-04-25T11:51:16;17.60;;;3.05;;
51981;SDS011;37998;53.416;6.730;2023-04-25T11:53:44;12.88;;;2.92;;
51981;SDS011;37998;53.416;6.730;2023-04-25T11:56:10;12.55;;;2.53;;
51981;SDS011;37998;53.416;6.730;2023-04-25T12:01:27;11.13;;;3.10;;
51981;SDS011;37998;53.416;6.730;2023-04-25T12:03:56;11.68;;;2.47;;
51981;SDS011;37998;53.416;6.730;2023-04-25T12:06:26;18.25;;;3.10;;
51981;SDS011;37998;53.416;6.730;2023-04-25T12:09:03;9.80;;;2.60;;
51981;SDS011;37998;53.416;6.730;2023-04-25T12:11:32;11.80;;;2.30;;
51981;SDS011;37998;53.416;6.730;2023-04-25T12:14:05;10.15;;;2.58;;
51981;SDS011;37998;53.416;6.730;2023-04-25T12:16:44;14.27;;;3.03;;
51981;SDS011;37998;53.416;6.730;2023-04-25T12:19:14;7.65;;;2.80;;
51981;SDS011;37998;53.416;6.730;2023-04-25T12:21:45;12.32;;;2.10;;
51981;SDS011;37998;53.416;6.730;2023-04-25T12:24:12;7.57;;;2.20;;
51981;SDS011;37998;53.416;6.730;2023-04-25T12:29:27;6.78;;;1.92;;
51981;SDS011;37998;53.416;6.730;2023-04-25T12:31:55;7.70;;;1.90;;
51981;SDS011;37998;53.416;6.730;2023-04-25T12:34:21;9.63;;;2.30;;
51981;SDS011;37998;53.416;6.730;2023-04-25T12:36:48;7.90;;;2.00;;
51981;SDS011;37998;53.416;6.730;2023-04-25T12:39:19;8.05;;;2.50;;
51981;SDS011;37998;53.416;6.730;2023-04-25T12:41:49;12.45;;;2.33;;
51981;SDS011;37998;53.416;6.730;2023-04-25T12:44:17;7.68;;;2.58;;
51981;SDS011;37998;53.416;6.730;2023-04-25T12:46:43;8.43;;;2.00;;
51981;SDS011;37998;53.416;6.730;2023-04-25T12:49:09;8.15;;;2.20;;
51981;SDS011;37998;53.416;6.730;2023-04-25T12:51:35;8.57;;;2.17;;
51981;SDS011;37998;53.416;6.730;2023-04-25T12:54:02;8.30;;;1.98;;
51981;SDS011;37998;53.416;6.730;2023-04-25T12:56:29;9.95;;;2.58;;
51981;SDS011;37998;53.416;6.730;2023-04-25T12:58:56;8.18;;;2.10;;
51981;SDS011;37998;53.416;6.730;2023-04-25T13:01:22;10.63;;;2.58;;
51981;SDS011;37998;53.416;6.730;2023-04-25T13:03:49;8.20;;;2.20;;
51981;SDS011;37998;53.416;6.730;2023-04-25T13:06:15;10.77;;;2.35;;
51981;SDS011;37998;53.416;6.730;2023-04-25T13:08:42;8.68;;;2.40;;
51981;SDS011;37998;53.416;6.730;2023-04-25T13:11:08;12.38;;;2.55;;
51981;SDS011;37998;53.416;6.730;2023-04-25T13:13:35;7.60;;;1.88;;
51981;SDS011;37998;53.416;6.730;2023-04-25T13:16:01;11.18;;;2.20;;
51981;SDS011;37998;53.416;6.730;2023-04-25T13:18:28;7.72;;;2.58;;
51981;SDS011;37998;53.416;6.730;2023-04-25T13:20:55;11.27;;;2.25;;
51981;SDS011;37998;53.416;6.730;2023-04-25T13:23:21;11.15;;;2.10;;
51981;SDS011;37998;53.416;6.730;2023-04-25T13:25:48;7.45;;;1.65;;
51981;SDS011;37998;53.416;6.730;2023-04-25T13:28:14;6.57;;;1.90;;
51981;SDS011;37998;53.416;6.730;2023-04-25T13:30:41;11.35;;;2.20;;
51981;SDS011;37998;53.416;6.730;2023-04-25T13:33:07;7.40;;;1.98;;
51981;SDS011;37998;53.416;6.730;2023-04-25T13:35:34;8.60;;;2.47;;
51981;SDS011;37998;53.416;6.730;2023-04-25T13:38:02;8.82;;;1.98;;
51981;SDS011;37998;53.416;6.730;2023-04-25T13:40:28;10.77;;;2.22;;
51981;SDS011;37998;53.416;6.730;2023-04-25T13:42:54;5.20;;;1.85;;
51981;SDS011;37998;53.416;6.730;2023-04-25T13:45:21;10.23;;;1.88;;
51981;SDS011;37998;53.416;6.730;2023-04-25T13:47:47;6.68;;;1.85;;
51981;SDS011;37998;53.416;6.730;2023-04-25T13:50:13;8.48;;;2.08;;
51981;SDS011;37998;53.416;6.730;2023-04-25T13:52:40;6.30;;;2.13;;
51981;SDS011;37998;53.416;6.730;2023-04-25T13:55:08;8.48;;;2.40;;
51981;SDS011;37998;53.416;6.730;2023-04-25T13:57:36;9.40;;;1.75;;
51981;SDS011;37998;53.416;6.730;2023-04-25T14:00:03;7.63;;;2.28;;
51981;SDS011;37998;53.416;6.730;2023-04-25T14:02:34;7.38;;;2.03;;
51981;SDS011;37998;53.416;6.730;2023-04-25T14:05:01;6.60;;;2.00;;
51981;SDS011;37998;53.416;6.730;2023-04-25T14:07:28;6.07;;;2.42;;
51981;SDS011;37998;53.416;6.730;2023-04-25T14:09:55;7.75;;;1.90;;
51981;SDS011;37998;53.416;6.730;2023-04-25T14:12:22;7.60;;;2.15;;
51981;SDS011;37998;53.416;6.730;2023-04-25T14:14:49;7.53;;;1.95;;
51981;SDS011;37998;53.416;6.730;2023-04-25T14:17:15;10.82;;;2.05;;
51981;SDS011;37998;53.416;6.730;2023-04-25T14:19:41;10.90;;;2.00;;
51981;SDS011;37998;53.416;6.730;2023-04-25T14:22:11;7.13;;;1.63;;
51981;SDS011;37998;53.416;6.730;2023-04-25T14:24:37;6.70;;;1.90;;
51981;SDS011;37998;53.416;6.730;2023-04-25T14:27:03;7.35;;;2.53;;
51981;SDS011;37998;53.416;6.730;2023-04-25T14:29:29;10.75;;;1.90;;
51981;SDS011;37998;53.416;6.730;2023-04-25T14:31:56;14.18;;;2.40;;
51981;SDS011;37998;53.416;6.730;2023-04-25T14:34:23;12.35;;;2.47;;
51981;SDS011;37998;53.416;6.730;2023-04-25T14:36:49;11.45;;;2.60;;
51981;SDS011;37998;53.416;6.730;2023-04-25T14:39:15;6.32;;;2.38;;
51981;SDS011;37998;53.416;6.730;2023-04-25T14:41:41;15.23;;;4.05;;
51981;SDS011;37998;53.416;6.730;2023-04-25T14:44:07;8.65;;;2.63;;
51981;SDS011;37998;53.416;6.730;2023-04-25T14:46:33;7.65;;;2.50;;
51981;SDS011;37998;53.416;6.730;2023-04-25T14:48:59;9.60;;;2.40;;
51981;SDS011;37998;53.416;6.730;2023-04-25T14:51:26;14.75;;;5.43;;
51981;SDS011;37998;53.416;6.730;2023-04-25T14:53:52;13.85;;;3.28;;
51981;SDS011;37998;53.416;6.730;2023-04-25T14:56:18;12.68;;;3.00;;
51981;SDS011;37998;53.416;6.730;2023-04-25T14:58:44;10.85;;;2.65;;
51981;SDS011;37998;53.416;6.730;2023-04-25T15:01:11;5.35;;;1.90;;
51981;SDS011;37998;53.416;6.730;2023-04-25T15:03:38;10.73;;;3.38;;
51981;SDS011;37998;53.416;6.730;2023-04-25T15:06:07;13.52;;;4.15;;
51981;SDS011;37998;53.416;6.730;2023-04-25T15:08:33;8.90;;;2.53;;